createdAt,value
2022-09-30T00:02:18.374Z,17.00
2022-09-30T00:04:45.482Z,16.85
2022-09-30T00:07:12.385Z,16.98
2022-09-30T00:09:39.350Z,17.20
2022-09-30T00:12:06.506Z,15.52
2022-09-30T00:14:33.321Z,17.30
2022-09-30T00:17:00.265Z,14.88
2022-09-30T00:19:27.393Z,16.10
2022-09-30T00:21:54.209Z,16.90
2022-09-30T00:24:21.258Z,15.18
2022-09-30T00:26:48.292Z,14.57
2022-09-30T00:29:15.201Z,14.52
2022-09-30T00:31:42.181Z,14.85
2022-09-30T00:34:11.414Z,14.48
2022-09-30T00:36:46.247Z,14.98
2022-09-30T00:39:31.642Z,15.63
2022-09-30T00:42:00.304Z,14.80
2022-09-30T00:44:52.310Z,13.32
2022-09-30T00:47:25.675Z,13.32
2022-09-30T00:49:53.115Z,15.77
2022-09-30T00:52:19.924Z,13.80
2022-09-30T00:54:46.771Z,14.77
2022-09-30T00:57:13.928Z,14.05
2022-09-30T00:59:43.136Z,16.02
2022-09-30T01:02:10.357Z,13.18
2022-09-30T01:04:37.639Z,14.30
2022-09-30T01:07:08.473Z,13.73
2022-09-30T01:09:36.234Z,11.68
2022-09-30T01:12:05.275Z,11.90
2022-09-30T01:14:32.123Z,12.23
2022-09-30T01:17:31.303Z,12.27
2022-09-30T01:20:09.529Z,12.35
2022-09-30T01:22:41.332Z,12.57
2022-09-30T01:25:46.699Z,15.98
2022-09-30T01:28:38.016Z,12.13
2022-09-30T01:31:29.519Z,11.85
2022-09-30T01:34:24.397Z,11.73
2022-09-30T01:37:12.115Z,10.93
2022-09-30T01:39:38.914Z,11.57
2022-09-30T01:42:36.793Z,9.98
2022-09-30T01:45:17.590Z,9.70
2022-09-30T01:47:46.935Z,11.68
2022-09-30T01:50:29.080Z,10.73
2022-09-30T01:52:57.738Z,10.23
2022-09-30T01:55:31.275Z,10.05
2022-09-30T01:58:02.241Z,11.38
2022-09-30T02:00:29.144Z,10.25
2022-09-30T02:03:02.257Z,11.02
2022-09-30T02:05:38.852Z,10.75
2022-09-30T02:08:31.837Z,10.52
2022-09-30T02:11:00.269Z,11.48
2022-09-30T02:13:32.985Z,11.20
2022-09-30T02:16:01.657Z,11.05
2022-09-30T02:18:39.334Z,10.02
2022-09-30T02:21:06.494Z,10.27
2022-09-30T02:23:35.244Z,10.40
2022-09-30T02:26:25.064Z,10.40
2022-09-30T02:29:19.024Z,10.68
2022-09-30T02:31:47.247Z,10.63
2022-09-30T02:34:35.918Z,10.27
2022-09-30T02:37:19.896Z,11.52
2022-09-30T02:40:02.484Z,11.90
2022-09-30T02:42:30.159Z,11.27
2022-09-30T02:45:01.284Z,9.25
2022-09-30T02:47:46.396Z,10.27
2022-09-30T02:50:30.004Z,9.85
2022-09-30T02:53:21.592Z,10.07
2022-09-30T02:56:03.828Z,10.90
2022-09-30T02:58:30.636Z,10.93
2022-09-30T03:00:57.700Z,9.73
2022-09-30T03:03:29.807Z,11.38
2022-09-30T03:05:56.578Z,11.38
2022-09-30T03:08:23.646Z,8.52
2022-09-30T03:10:51.012Z,10.00
2022-09-30T03:13:20.743Z,9.68
2022-09-30T03:16:15.857Z,11.35
2022-09-30T03:18:55.914Z,12.45
2022-09-30T03:21:41.604Z,10.27
2022-09-30T03:24:36.540Z,10.40
2022-09-30T03:27:03.560Z,11.33
2022-09-30T03:29:31.096Z,10.73
2022-09-30T03:32:03.032Z,11.15
2022-09-30T03:34:47.121Z,8.82
2022-09-30T03:37:26.051Z,9.95
2022-09-30T03:40:00.030Z,9.23
2022-09-30T03:42:38.332Z,10.95
2022-09-30T03:45:25.688Z,11.30
2022-09-30T03:47:53.704Z,9.82
2022-09-30T03:50:21.940Z,10.52
2022-09-30T03:52:49.080Z,11.88
2022-09-30T03:55:16.804Z,9.52
2022-09-30T03:57:44.756Z,9.35
2022-09-30T04:00:13.196Z,8.23
2022-09-30T04:02:40.341Z,9.80
2022-09-30T04:05:07.816Z,8.07
2022-09-30T04:07:35.023Z,9.07
2022-09-30T04:10:01.854Z,8.52
2022-09-30T04:12:28.863Z,11.00
2022-09-30T04:14:55.639Z,9.77
2022-09-30T04:17:22.554Z,8.43
2022-09-30T04:19:49.874Z,8.93
2022-09-30T04:22:16.744Z,8.80
2022-09-30T04:24:43.979Z,9.40
2022-09-30T04:27:11.008Z,9.25
2022-09-30T04:29:37.760Z,9.48
2022-09-30T04:32:04.629Z,9.13
2022-09-30T04:34:31.754Z,9.35
2022-09-30T04:36:58.500Z,8.10
2022-09-30T04:39:25.281Z,9.43
2022-09-30T04:41:54.020Z,8.23
2022-09-30T04:44:21.499Z,12.57
2022-09-30T04:46:48.759Z,10.68
2022-09-30T04:49:15.787Z,11.60
2022-09-30T04:51:46.152Z,8.65
2022-09-30T04:54:13.474Z,8.45
2022-09-30T04:56:40.546Z,8.63
2022-09-30T04:59:07.339Z,9.98
2022-09-30T05:01:34.210Z,8.30
2022-09-30T05:04:01.907Z,8.98
2022-09-30T05:06:28.991Z,13.73
2022-09-30T05:08:55.765Z,9.10
2022-09-30T05:11:22.917Z,9.02
2022-09-30T05:13:50.985Z,9.20
2022-09-30T05:16:18.164Z,7.38
2022-09-30T05:18:48.171Z,11.32
2022-09-30T05:21:16.032Z,7.20
2022-09-30T05:23:43.012Z,9.65
2022-09-30T05:26:12.492Z,10.27
2022-09-30T05:28:40.927Z,8.90
2022-09-30T05:31:07.905Z,10.50
2022-09-30T05:33:35.961Z,9.50
2022-09-30T05:36:04.963Z,10.18
2022-09-30T05:38:31.869Z,8.90
2022-09-30T05:40:59.093Z,10.32
2022-09-30T05:43:25.942Z,10.05
2022-09-30T05:45:56.341Z,8.85
2022-09-30T05:48:24.104Z,7.85
2022-09-30T05:50:57.789Z,8.18
2022-09-30T05:53:24.926Z,8.95
2022-09-30T05:55:51.741Z,8.10
2022-09-30T05:58:19.115Z,11.25
2022-09-30T06:00:47.373Z,8.15
2022-09-30T06:03:14.589Z,10.95
2022-09-30T06:05:41.445Z,7.15
2022-09-30T06:08:10.454Z,7.55
2022-09-30T06:10:39.759Z,7.20
2022-09-30T06:13:07.413Z,8.30
2022-09-30T06:15:38.993Z,8.40
2022-09-30T06:18:06.120Z,9.40
2022-09-30T06:20:32.966Z,9.00
2022-09-30T06:23:00.814Z,7.38
2022-09-30T06:25:28.903Z,7.70
2022-09-30T06:27:55.820Z,9.00
2022-09-30T06:30:22.984Z,7.90
2022-09-30T06:32:49.894Z,9.50
2022-09-30T06:35:16.949Z,8.80
2022-09-30T06:37:44.809Z,11.65
2022-09-30T06:40:11.754Z,9.80
2022-09-30T06:42:38.607Z,9.32
2022-09-30T06:45:06.158Z,11.18
2022-09-30T06:47:33.412Z,12.18
2022-09-30T06:50:00.364Z,12.35
2022-09-30T06:52:27.472Z,11.57
2022-09-30T06:54:56.708Z,11.60
2022-09-30T06:57:26.760Z,10.52
2022-09-30T06:59:54.553Z,11.57
2022-09-30T07:02:22.175Z,11.20
2022-09-30T07:04:49.149Z,11.25
2022-09-30T07:07:16.265Z,11.07
2022-09-30T07:09:43.462Z,11.18
2022-09-30T07:12:10.543Z,8.68
2022-09-30T07:14:37.751Z,11.10
2022-09-30T07:17:05.979Z,10.10
2022-09-30T07:19:35.167Z,10.90
2022-09-30T07:22:22.223Z,12.48
2022-09-30T07:24:49.099Z,11.43
2022-09-30T07:27:16.238Z,9.00
2022-09-30T07:30:07.746Z,10.13
2022-09-30T07:32:31.587Z,14.07
2022-09-30T07:34:58.557Z,12.10
2022-09-30T07:37:26.243Z,11.25
2022-09-30T07:39:53.492Z,12.27
2022-09-30T07:42:22.640Z,12.38
2022-09-30T07:44:52.157Z,12.05
2022-09-30T07:47:19.839Z,12.20
2022-09-30T07:49:46.649Z,13.38
2022-09-30T07:52:13.576Z,11.88
2022-09-30T07:54:45.292Z,11.60
2022-09-30T07:57:15.125Z,11.70
2022-09-30T07:59:42.379Z,12.90
2022-09-30T08:02:15.706Z,12.07
2022-09-30T08:04:44.323Z,10.93
2022-09-30T08:07:12.268Z,14.02
2022-09-30T08:09:39.148Z,13.70
2022-09-30T08:12:06.085Z,13.77
2022-09-30T08:14:33.453Z,15.43
2022-09-30T08:17:00.895Z,14.27
2022-09-30T08:19:29.408Z,12.73
2022-09-30T08:21:56.765Z,13.93
2022-09-30T08:24:24.029Z,12.27
2022-09-30T08:26:51.729Z,13.15
2022-09-30T08:29:35.722Z,15.98
2022-09-30T08:32:05.998Z,12.90
2022-09-30T08:34:35.653Z,13.43
2022-09-30T08:37:07.904Z,15.65
2022-09-30T08:39:37.351Z,16.00
2022-09-30T08:42:48.938Z,13.68
2022-09-30T08:45:52.055Z,15.30
2022-09-30T08:48:52.571Z,16.65
2022-09-30T08:51:39.768Z,15.75
2022-09-30T08:54:08.137Z,16.13
2022-09-30T08:56:35.291Z,17.08
2022-09-30T08:59:06.316Z,16.75
2022-09-30T09:01:41.139Z,14.50
2022-09-30T09:04:08.422Z,17.60
2022-09-30T09:06:35.273Z,15.85
2022-09-30T09:09:02.177Z,14.68
2022-09-30T09:11:39.926Z,15.55
2022-09-30T09:14:28.652Z,15.93
2022-09-30T09:17:34.108Z,17.00
2022-09-30T09:20:12.994Z,15.40
2022-09-30T09:22:40.753Z,14.68
2022-09-30T09:25:13.109Z,16.42
2022-09-30T09:27:59.728Z,15.40
2022-09-30T09:30:36.338Z,15.77
2022-09-30T09:33:21.380Z,16.00
2022-09-30T09:36:14.416Z,14.85
2022-09-30T09:38:50.049Z,14.63
2022-09-30T09:41:46.540Z,13.93
2022-09-30T09:44:42.212Z,14.55
2022-09-30T09:47:15.152Z,12.50
2022-09-30T09:50:04.487Z,17.20
2022-09-30T09:52:58.052Z,14.23
2022-09-30T09:55:24.846Z,15.32
2022-09-30T09:58:09.871Z,12.98
2022-09-30T10:00:42.691Z,13.55
2022-09-30T10:03:19.460Z,12.68
2022-09-30T10:06:05.968Z,15.30
2022-09-30T10:08:34.643Z,11.25
2022-09-30T10:11:22.114Z,13.07
2022-09-30T10:13:51.047Z,12.57
2022-09-30T10:16:37.051Z,13.05
2022-09-30T10:19:09.513Z,15.27
2022-09-30T10:21:36.629Z,12.02
2022-09-30T10:24:19.278Z,12.55
2022-09-30T10:26:48.955Z,12.48
2022-09-30T10:29:31.931Z,11.63
2022-09-30T10:32:00.334Z,11.02
2022-09-30T10:34:29.331Z,12.02
2022-09-30T10:36:56.800Z,12.88
2022-09-30T10:39:30.930Z,12.90
2022-09-30T10:42:08.481Z,12.57
2022-09-30T10:44:46.753Z,12.88
2022-09-30T10:47:19.480Z,11.82
2022-09-30T10:50:07.092Z,11.98
2022-09-30T10:52:52.818Z,12.90
2022-09-30T10:55:19.991Z,11.65
2022-09-30T10:57:46.985Z,14.10
2022-09-30T11:00:15.980Z,11.13
2022-09-30T11:03:03.278Z,11.05
2022-09-30T11:05:33.091Z,13.45
2022-09-30T11:08:06.210Z,11.48
2022-09-30T11:10:54.057Z,10.52
2022-09-30T11:13:50.305Z,12.20
2022-09-30T11:16:38.188Z,13.13
2022-09-30T11:19:13.616Z,13.15
2022-09-30T11:21:45.708Z,12.13
2022-09-30T11:24:38.164Z,16.58
2022-09-30T11:27:39.276Z,11.77
2022-09-30T11:30:21.533Z,12.52
2022-09-30T11:33:22.269Z,12.80
2022-09-30T11:35:52.229Z,12.52
2022-09-30T11:38:37.253Z,13.27
2022-09-30T11:41:13.537Z,12.10
2022-09-30T11:43:59.074Z,11.45
2022-09-30T11:46:32.235Z,12.02
2022-09-30T11:49:08.601Z,12.70
2022-09-30T11:51:47.868Z,11.75
2022-09-30T11:54:20.456Z,11.48
2022-09-30T11:57:10.734Z,10.02
2022-09-30T11:59:40.271Z,11.85
2022-09-30T12:02:26.832Z,12.45
2022-09-30T12:04:56.511Z,11.38
2022-09-30T12:07:43.555Z,11.38
2022-09-30T12:10:37.632Z,10.27
2022-09-30T12:13:12.437Z,12.15
2022-09-30T12:15:41.181Z,11.48
2022-09-30T12:18:14.682Z,9.32
2022-09-30T12:20:46.529Z,12.00
2022-09-30T12:23:42.493Z,9.25
2022-09-30T12:26:09.416Z,10.05
2022-09-30T12:29:10.117Z,9.43
2022-09-30T12:31:58.731Z,12.88
2022-09-30T12:34:45.134Z,11.82
2022-09-30T12:37:21.676Z,11.43
2022-09-30T12:40:12.128Z,12.20
2022-09-30T12:43:06.560Z,11.55
2022-09-30T12:45:39.700Z,12.93
2022-09-30T12:48:08.649Z,13.93
2022-09-30T12:50:49.483Z,12.13
2022-09-30T12:53:22.631Z,11.65
2022-09-30T12:55:49.735Z,11.23
2022-09-30T12:58:30.614Z,12.02
2022-09-30T13:01:06.330Z,9.85
2022-09-30T13:03:51.571Z,11.40
2022-09-30T13:06:27.575Z,11.45
2022-09-30T13:08:57.485Z,12.07
2022-09-30T13:11:36.417Z,10.85
2022-09-30T13:14:04.529Z,11.45
2022-09-30T13:17:10.446Z,12.73
2022-09-30T13:19:41.093Z,11.18
2022-09-30T13:22:20.580Z,11.23
2022-09-30T13:25:05.527Z,11.48
2022-09-30T13:27:39.465Z,11.25
2022-09-30T13:30:17.895Z,14.02
2022-09-30T13:32:51.466Z,11.90
2022-09-30T13:35:51.471Z,11.25
2022-09-30T13:38:20.527Z,13.40
2022-09-30T13:41:03.505Z,11.98
2022-09-30T13:43:51.044Z,10.95
2022-09-30T13:46:27.587Z,11.05
2022-09-30T13:48:57.035Z,12.40
2022-09-30T13:51:25.090Z,11.82
2022-09-30T13:53:55.320Z,11.23
2022-09-30T13:56:25.111Z,11.52
2022-09-30T13:59:16.759Z,12.07
2022-09-30T14:01:53.666Z,9.07
2022-09-30T14:04:26.471Z,9.63
2022-09-30T14:07:10.458Z,10.05
2022-09-30T14:10:09.272Z,11.00
2022-09-30T14:13:03.111Z,10.30
2022-09-30T14:16:06.992Z,10.20
2022-09-30T14:18:44.388Z,10.00
2022-09-30T14:21:36.191Z,8.40
2022-09-30T14:24:17.539Z,9.70
2022-09-30T14:26:54.835Z,11.90
2022-09-30T14:30:00.928Z,9.13
2022-09-30T14:32:29.190Z,10.57
2022-09-30T14:35:52.588Z,9.07
2022-09-30T14:38:37.615Z,11.65
2022-09-30T14:41:23.508Z,9.60
2022-09-30T14:43:55.432Z,10.60
2022-09-30T14:46:26.802Z,11.45
2022-09-30T14:48:54.427Z,9.77
2022-09-30T14:51:23.706Z,10.85
2022-09-30T14:54:02.646Z,10.15
2022-09-30T14:56:31.819Z,9.38
2022-09-30T14:58:59.943Z,9.52
2022-09-30T15:01:31.407Z,10.90
2022-09-30T15:04:13.987Z,11.20
2022-09-30T15:06:43.659Z,10.13
2022-09-30T15:09:20.733Z,10.65
2022-09-30T15:11:47.807Z,10.00
2022-09-30T15:14:18.540Z,10.45
2022-09-30T15:16:47.592Z,11.88
2022-09-30T15:19:26.143Z,11.05
2022-09-30T15:22:02.515Z,10.73
2022-09-30T15:24:33.150Z,13.43
2022-09-30T15:27:00.422Z,13.07
2022-09-30T15:29:27.530Z,10.55
2022-09-30T15:32:20.571Z,11.80
2022-09-30T15:34:47.678Z,11.27
2022-09-30T15:37:23.170Z,13.73
2022-09-30T15:40:08.897Z,14.60
2022-09-30T15:42:45.639Z,18.27
2022-09-30T15:45:25.100Z,15.65
2022-09-30T15:48:00.127Z,15.00
2022-09-30T15:55:48.243Z,14.98
2022-09-30T15:58:27.070Z,13.50
2022-09-30T16:00:54.744Z,14.68
2022-09-30T16:03:29.048Z,15.93
2022-09-30T16:06:10.269Z,13.77
2022-09-30T16:09:01.609Z,13.93
2022-09-30T16:11:57.018Z,16.15
2022-09-30T16:14:27.444Z,12.48
2022-09-30T16:16:56.252Z,13.82
2022-09-30T16:19:24.584Z,16.63
2022-09-30T16:21:51.612Z,12.55
2022-09-30T16:24:27.334Z,14.52
2022-09-30T16:27:14.712Z,17.08
2022-09-30T16:29:41.920Z,15.75
2022-09-30T16:32:08.942Z,22.17
2022-09-30T16:34:36.801Z,15.48
2022-09-30T16:37:05.783Z,15.18
2022-09-30T16:39:32.552Z,16.45
2022-09-30T16:41:59.273Z,15.63
2022-09-30T16:44:26.409Z,16.25
2022-09-30T16:46:53.133Z,16.33
2022-09-30T16:49:20.003Z,17.88
2022-09-30T16:51:46.966Z,16.63
2022-09-30T16:54:13.681Z,17.13
2022-09-30T16:56:40.441Z,15.88
2022-09-30T16:59:13.407Z,15.45
2022-09-30T17:01:40.313Z,16.15
2022-09-30T17:04:07.170Z,16.77
2022-09-30T17:06:34.523Z,13.90
2022-09-30T17:09:02.112Z,15.57
2022-09-30T17:11:31.259Z,16.55
2022-09-30T17:13:58.554Z,18.88
2022-09-30T17:16:25.701Z,15.00
2022-09-30T17:18:52.590Z,16.50
2022-09-30T17:21:20.455Z,15.68
2022-09-30T17:23:47.268Z,18.92
2022-09-30T17:26:14.058Z,16.50
2022-09-30T17:28:41.094Z,16.85
2022-09-30T17:31:08.550Z,17.35
2022-09-30T17:33:37.582Z,18.27
2022-09-30T17:36:12.452Z,18.13
2022-09-30T17:38:39.510Z,17.50
2022-09-30T17:41:25.667Z,15.90
2022-09-30T17:43:52.886Z,18.23
2022-09-30T17:46:23.181Z,15.55
2022-09-30T17:48:51.224Z,20.73
2022-09-30T17:51:18.226Z,16.83
2022-09-30T17:53:45.729Z,17.05
2022-09-30T17:56:17.038Z,18.80
2022-09-30T17:58:47.418Z,21.55
2022-09-30T18:01:15.884Z,19.17
2022-09-30T18:03:43.119Z,16.85
2022-09-30T18:06:09.922Z,18.38
2022-09-30T18:08:36.879Z,19.55
2022-09-30T18:11:03.626Z,18.38
2022-09-30T18:13:30.435Z,23.77
2022-09-30T18:16:02.068Z,19.35
2022-09-30T18:18:29.465Z,21.27
2022-09-30T18:20:56.313Z,19.75
2022-09-30T18:23:23.383Z,17.90
2022-09-30T18:25:56.179Z,20.08
2022-09-30T18:28:23.080Z,20.98
2022-09-30T18:30:51.171Z,19.00
2022-09-30T18:33:21.539Z,20.08
2022-09-30T18:35:48.586Z,17.85
2022-09-30T18:38:15.612Z,19.52
2022-09-30T18:40:43.593Z,19.45
2022-09-30T18:43:12.952Z,18.48
2022-09-30T18:45:40.333Z,17.55
2022-09-30T18:48:07.808Z,19.05
2022-09-30T18:50:34.752Z,19.00
2022-09-30T18:53:09.597Z,20.98
2022-09-30T18:55:38.023Z,19.70
2022-09-30T18:58:05.187Z,23.13
2022-09-30T19:00:32.129Z,18.30
2022-09-30T19:02:59.008Z,20.98
2022-09-30T19:05:26.137Z,23.45
2022-09-30T19:07:53.637Z,20.75
2022-09-30T19:10:20.533Z,19.95
2022-09-30T19:12:47.595Z,20.60
2022-09-30T19:15:17.151Z,20.45
2022-09-30T19:17:44.448Z,17.92
2022-09-30T19:20:11.695Z,19.83
2022-09-30T19:22:38.544Z,20.10
2022-09-30T19:25:06.432Z,20.40
2022-09-30T19:27:35.678Z,18.60
2022-09-30T19:30:02.794Z,19.58
2022-09-30T19:32:34.379Z,17.77
2022-09-30T19:35:06.912Z,18.67
2022-09-30T19:37:34.423Z,18.05
2022-09-30T19:40:11.585Z,16.27
2022-09-30T19:42:44.334Z,19.48
2022-09-30T19:45:12.517Z,17.75
2022-09-30T19:47:39.481Z,19.20
2022-09-30T19:50:07.523Z,19.15
2022-09-30T19:52:35.160Z,16.25
2022-09-30T19:55:14.349Z,18.92
2022-09-30T19:57:43.551Z,17.35
2022-09-30T20:00:12.570Z,19.75
2022-09-30T20:02:39.488Z,16.10
2022-09-30T20:05:07.259Z,18.23
2022-09-30T20:07:35.196Z,16.42
2022-09-30T20:10:02.333Z,16.05
2022-09-30T20:12:29.408Z,18.77
2022-09-30T20:15:14.869Z,20.70
2022-09-30T20:20:27.741Z,17.70
2022-09-30T20:22:54.849Z,17.92
2022-09-30T20:25:21.706Z,15.77
2022-09-30T20:27:52.112Z,18.35
2022-09-30T20:30:20.477Z,16.90
2022-09-30T20:32:47.295Z,16.17
2022-09-30T20:35:14.111Z,19.02
2022-09-30T20:37:42.228Z,17.40
2022-09-30T20:40:09.617Z,17.95
2022-09-30T20:42:38.437Z,16.25
2022-09-30T20:45:10.361Z,17.52
2022-09-30T20:47:40.444Z,18.65
2022-09-30T20:50:07.847Z,18.35
2022-09-30T20:52:34.658Z,18.42
2022-09-30T20:55:01.654Z,18.65
2022-09-30T20:57:32.253Z,18.77
2022-09-30T21:00:00.048Z,16.02
2022-09-30T21:02:29.932Z,16.45
2022-09-30T21:04:57.845Z,17.48
2022-09-30T21:07:25.511Z,15.32
2022-09-30T21:09:52.567Z,16.20
2022-09-30T21:12:19.620Z,16.80
2022-09-30T21:14:46.660Z,15.50
2022-09-30T21:17:13.594Z,17.58
2022-09-30T21:19:40.557Z,17.55
2022-09-30T21:22:07.290Z,17.08
2022-09-30T21:24:34.046Z,16.85
2022-09-30T21:27:01.751Z,18.88
2022-09-30T21:29:30.654Z,18.25
2022-09-30T21:31:57.722Z,19.08
2022-09-30T21:34:24.870Z,19.10
2022-09-30T21:36:51.674Z,19.40
2022-09-30T21:39:18.444Z,20.60
2022-09-30T21:41:45.538Z,20.23
2022-09-30T21:44:12.310Z,20.52
2022-09-30T21:46:39.109Z,19.65
2022-09-30T21:49:07.602Z,19.25
2022-09-30T21:51:35.902Z,23.35
2022-09-30T21:54:02.972Z,21.05
2022-09-30T21:56:30.112Z,24.67
2022-09-30T21:58:57.184Z,21.55
2022-09-30T22:01:24.308Z,20.33
2022-09-30T22:03:51.322Z,22.30
2022-09-30T22:06:18.911Z,20.92
2022-09-30T22:08:45.682Z,19.55
2022-09-30T22:11:24.605Z,21.25
2022-09-30T22:13:55.489Z,19.13
2022-09-30T22:16:29.899Z,21.83
2022-09-30T22:19:00.153Z,24.83
2022-09-30T22:21:32.566Z,21.88
2022-09-30T22:24:01.449Z,19.63
2022-09-30T22:26:28.521Z,24.95
2022-09-30T22:28:56.950Z,23.38
2022-09-30T22:31:27.504Z,21.63
2022-09-30T22:34:14.662Z,20.52
2022-09-30T22:36:59.995Z,20.27
2022-09-30T22:39:27.122Z,20.10
2022-09-30T22:41:55.509Z,20.85
2022-09-30T22:44:23.742Z,21.15
2022-09-30T22:46:51.238Z,21.85
2022-09-30T22:49:19.289Z,23.30
2022-09-30T22:51:49.417Z,21.63
2022-09-30T22:54:17.301Z,22.05
2022-09-30T22:56:44.038Z,19.50
2022-09-30T22:59:10.960Z,21.98
2022-09-30T23:01:38.007Z,26.02
2022-09-30T23:04:05.411Z,22.30
2022-09-30T23:06:32.189Z,21.73
2022-09-30T23:08:59.138Z,22.85
2022-09-30T23:11:26.055Z,22.73
2022-09-30T23:13:58.880Z,21.67
2022-09-30T23:16:26.280Z,21.90
2022-09-30T23:18:53.181Z,25.35
2022-09-30T23:21:20.229Z,23.40
2022-09-30T23:23:48.336Z,21.73
2022-09-30T23:26:20.212Z,22.13
2022-09-30T23:28:47.349Z,22.10
2022-09-30T23:31:15.476Z,24.52
2022-09-30T23:33:47.542Z,24.13
2022-09-30T23:36:26.999Z,22.58
2022-09-30T23:38:53.774Z,22.35
2022-09-30T23:41:21.400Z,26.60
2022-09-30T23:43:51.040Z,23.55
2022-09-30T23:46:18.069Z,23.77
2022-09-30T23:48:46.001Z,25.45
2022-09-30T23:51:13.692Z,23.52
2022-09-30T23:53:40.528Z,24.35
2022-09-30T23:56:10.996Z,25.83
2022-09-30T23:58:37.724Z,27.00
